sensor_id;sensor_type;location;lat;lon;timestamp;pressure;altitude;pressure_sealevel;temperature;humidity
74544;BME280;63016;55.030;38.710;2023-04-24T00:02:13;100052.72;;;8.16;36.19
74544;BME280;63016;55.030;38.710;2023-04-24T00:04:39;100052.19;;;8.12;36.54
74544;BME280;63016;55.030;38.710;2023-04-24T00:07:06;100060.13;;;8.11;36.57
74544;BME280;63016;55.030;38.710;2023-04-24T00:09:32;100044.31;;;8.04;36.48
74544;BME280;63016;55.030;38.710;2023-04-24T00:11:58;100058.13;;;8.05;36.38
74544;BME280;63016;55.030;38.710;2023-04-24T00:14:24;100050.59;;;8.02;35.85
74544;BME280;63016;55.030;38.710;2023-04-24T00:16:49;100058.69;;;7.98;36.27
74544;BME280;63016;55.030;38.710;2023-04-24T00:19:15;100054.59;;;7.96;36.46
74544;BME280;63016;55.030;38.710;2023-04-24T00:21:40;100040.69;;;7.87;36.67
74544;BME280;63016;55.030;38.710;2023-04-24T00:24:07;100056.00;;;7.90;36.32
74544;BME280;63016;55.030;38.710;2023-04-24T00:26:34;100050.25;;;7.87;36.42
74544;BME280;63016;55.030;38.710;2023-04-24T00:29:00;100052.34;;;7.83;36.72
74544;BME280;63016;55.030;38.710;2023-04-24T00:31:25;100053.59;;;7.79;36.51
74544;BME280;63016;55.030;38.710;2023-04-24T00:33:51;100050.19;;;7.79;36.77
74544;BME280;63016;55.030;38.710;2023-04-24T00:36:16;100052.25;;;7.75;36.11
74544;BME280;63016;55.030;38.710;2023-04-24T00:38:44;100061.94;;;7.73;36.70
74544;BME280;63016;55.030;38.710;2023-04-24T00:41:10;100058.84;;;7.69;36.65
74544;BME280;63016;55.030;38.710;2023-04-24T00:43:36;100064.16;;;7.68;36.94
74544;BME280;63016;55.030;38.710;2023-04-24T00:46:02;100058.44;;;7.64;36.62
74544;BME280;63016;55.030;38.710;2023-04-24T00:48:27;100058.88;;;7.60;36.53
74544;BME280;63016;55.030;38.710;2023-04-24T00:50:53;100053.69;;;7.60;36.60
74544;BME280;63016;55.030;38.710;2023-04-24T00:53:19;100060.94;;;7.56;36.82
74544;BME280;63016;55.030;38.710;2023-04-24T00:55:45;100054.38;;;7.52;36.55
74544;BME280;63016;55.030;38.710;2023-04-24T00:58:11;100057.13;;;7.51;36.53
74544;BME280;63016;55.030;38.710;2023-04-24T01:00:36;100055.59;;;7.48;36.54
74544;BME280;63016;55.030;38.710;2023-04-24T01:03:04;100050.84;;;7.43;37.01
74544;BME280;63016;55.030;38.710;2023-04-24T01:05:31;100057.16;;;7.41;36.50
74544;BME280;63016;55.030;38.710;2023-04-24T01:07:57;100061.66;;;7.39;36.61
74544;BME280;63016;55.030;38.710;2023-04-24T01:10:24;100052.22;;;7.38;36.45
74544;BME280;63016;55.030;38.710;2023-04-24T01:12:51;100048.16;;;7.35;36.42
74544;BME280;63016;55.030;38.710;2023-04-24T01:15:17;100048.28;;;7.34;36.74
74544;BME280;63016;55.030;38.710;2023-04-24T01:17:42;100046.78;;;7.31;36.50
74544;BME280;63016;55.030;38.710;2023-04-24T01:20:08;100040.78;;;7.31;36.88
74544;BME280;63016;55.030;38.710;2023-04-24T01:22:34;100043.50;;;7.29;37.08
74544;BME280;63016;55.030;38.710;2023-04-24T01:25:00;100045.69;;;7.24;36.61
74544;BME280;63016;55.030;38.710;2023-04-24T01:27:26;100035.06;;;7.17;36.92
74544;BME280;63016;55.030;38.710;2023-04-24T01:29:51;100041.91;;;7.18;36.16
74544;BME280;63016;55.030;38.710;2023-04-24T01:32:17;100058.16;;;7.20;36.81
74544;BME280;63016;55.030;38.710;2023-04-24T01:34:44;100051.47;;;7.18;36.48
74544;BME280;63016;55.030;38.710;2023-04-24T01:37:10;100048.88;;;7.18;36.95
74544;BME280;63016;55.030;38.710;2023-04-24T01:39:36;100044.63;;;7.17;37.21
74544;BME280;63016;55.030;38.710;2023-04-24T01:42:01;100039.31;;;7.09;36.70
74544;BME280;63016;55.030;38.710;2023-04-24T01:44:30;100049.28;;;7.13;37.10
74544;BME280;63016;55.030;38.710;2023-04-24T01:46:56;100047.09;;;7.09;37.46
74544;BME280;63016;55.030;38.710;2023-04-24T01:49:22;100044.09;;;7.04;37.30
74544;BME280;63016;55.030;38.710;2023-04-24T01:51:47;100049.03;;;7.07;36.99
74544;BME280;63016;55.030;38.710;2023-04-24T01:54:13;100049.97;;;7.06;37.01
74544;BME280;63016;55.030;38.710;2023-04-24T01:56:42;100046.69;;;7.04;37.87
74544;BME280;63016;55.030;38.710;2023-04-24T01:59:12;100047.66;;;7.03;37.25
74544;BME280;63016;55.030;38.710;2023-04-24T02:01:38;100052.03;;;7.02;36.98
74544;BME280;63016;55.030;38.710;2023-04-24T02:04:05;100053.94;;;7.00;37.07
74544;BME280;63016;55.030;38.710;2023-04-24T02:06:31;100050.53;;;7.00;37.35
74544;BME280;63016;55.030;38.710;2023-04-24T02:09:00;100050.81;;;6.97;37.67
74544;BME280;63016;55.030;38.710;2023-04-24T02:11:26;100051.75;;;6.95;37.77
74544;BME280;63016;55.030;38.710;2023-04-24T02:13:52;100053.69;;;6.93;37.48
74544;BME280;63016;55.030;38.710;2023-04-24T02:16:17;100057.25;;;6.92;37.29
74544;BME280;63016;55.030;38.710;2023-04-24T02:18:43;100062.53;;;6.91;37.55
74544;BME280;63016;55.030;38.710;2023-04-24T02:21:09;100060.09;;;6.89;37.35
74544;BME280;63016;55.030;38.710;2023-04-24T02:23:35;100061.63;;;6.82;37.97
74544;BME280;63016;55.030;38.710;2023-04-24T02:26:00;100054.66;;;6.83;37.68
74544;BME280;63016;55.030;38.710;2023-04-24T02:28:26;100055.31;;;6.85;37.46
74544;BME280;63016;55.030;38.710;2023-04-24T02:30:51;100064.06;;;6.84;37.43
74544;BME280;63016;55.030;38.710;2023-04-24T02:33:17;100063.41;;;6.82;37.70
74544;BME280;63016;55.030;38.710;2023-04-24T02:35:42;100066.81;;;6.82;37.71
74544;BME280;63016;55.030;38.710;2023-04-24T02:38:08;100064.22;;;6.82;37.68
74544;BME280;63016;55.030;38.710;2023-04-24T02:40:34;100066.91;;;6.81;37.92
74544;BME280;63016;55.030;38.710;2023-04-24T02:42:59;100065.13;;;6.81;37.92
74544;BME280;63016;55.030;38.710;2023-04-24T02:45:25;100064.31;;;6.81;38.02
74544;BME280;63016;55.030;38.710;2023-04-24T02:47:50;100072.00;;;6.82;37.83
74544;BME280;63016;55.030;38.710;2023-04-24T02:50:16;100075.25;;;6.84;38.15
74544;BME280;63016;55.030;38.710;2023-04-24T02:52:41;100075.25;;;6.84;38.12
74544;BME280;63016;55.030;38.710;2023-04-24T02:55:07;100085.38;;;6.87;38.33
74544;BME280;63016;55.030;38.710;2023-04-24T02:57:33;100081.81;;;6.88;38.15
74544;BME280;63016;55.030;38.710;2023-04-24T02:59:59;100069.81;;;6.87;38.18
74544;BME280;63016;55.030;38.710;2023-04-24T03:02:24;100082.06;;;6.95;38.30
74544;BME280;63016;55.030;38.710;2023-04-24T03:04:50;100070.63;;;6.88;38.16
74544;BME280;63016;55.030;38.710;2023-04-24T03:07:16;100074.97;;;6.97;38.44
74544;BME280;63016;55.030;38.710;2023-04-24T03:09:41;100083.03;;;7.04;38.50
74544;BME280;63016;55.030;38.710;2023-04-24T03:12:07;100075.25;;;7.04;38.38
74544;BME280;63016;55.030;38.710;2023-04-24T03:14:32;100082.34;;;7.11;38.61
74544;BME280;63016;55.030;38.710;2023-04-24T03:16:58;100089.84;;;7.14;38.17
74544;BME280;63016;55.030;38.710;2023-04-24T03:19:24;100084.78;;;7.22;38.66
74544;BME280;63016;55.030;38.710;2023-04-24T03:21:50;100081.91;;;7.26;38.65
74544;BME280;63016;55.030;38.710;2023-04-24T03:24:15;100089.69;;;7.35;39.25
74544;BME280;63016;55.030;38.710;2023-04-24T03:26:41;100088.16;;;7.42;38.86
74544;BME280;63016;55.030;38.710;2023-04-24T03:29:06;100087.47;;;7.50;38.93
74544;BME280;63016;55.030;38.710;2023-04-24T03:31:32;100083.88;;;7.61;39.20
74544;BME280;63016;55.030;38.710;2023-04-24T03:33:57;100080.53;;;7.68;39.01
74544;BME280;63016;55.030;38.710;2023-04-24T03:36:23;100098.28;;;7.83;39.53
74544;BME280;63016;55.030;38.710;2023-04-24T03:38:48;100092.91;;;7.94;39.00
74544;BME280;63016;55.030;38.710;2023-04-24T03:41:14;100091.91;;;8.05;39.39
74544;BME280;63016;55.030;38.710;2023-04-24T03:43:40;100095.66;;;8.20;39.71
74544;BME280;63016;55.030;38.710;2023-04-24T03:46:05;100098.03;;;8.31;39.32
74544;BME280;63016;55.030;38.710;2023-04-24T03:48:31;100106.06;;;8.47;39.79
74544;BME280;63016;55.030;38.710;2023-04-24T03:50:56;100101.16;;;8.62;39.63
74544;BME280;63016;55.030;38.710;2023-04-24T03:53:22;100098.06;;;8.77;39.34
74544;BME280;63016;55.030;38.710;2023-04-24T03:55:48;100095.38;;;8.86;39.36
74544;BME280;63016;55.030;38.710;2023-04-24T03:58:13;100108.88;;;9.08;39.85
74544;BME280;63016;55.030;38.710;2023-04-24T04:00:40;100102.84;;;9.25;39.92
74544;BME280;63016;55.030;38.710;2023-04-24T04:03:06;100100.66;;;9.38;39.64
74544;BME280;63016;55.030;38.710;2023-04-24T04:05:31;100106.50;;;9.58;39.77
74544;BME280;63016;55.030;38.710;2023-04-24T04:07:57;100114.22;;;9.76;40.63
74544;BME280;63016;55.030;38.710;2023-04-24T04:10:23;100111.56;;;9.94;40.21
74544;BME280;63016;55.030;38.710;2023-04-24T04:12:48;100111.25;;;10.05;39.89
74544;BME280;63016;55.030;38.710;2023-04-24T04:15:14;100117.28;;;10.32;39.56
74544;BME280;63016;55.030;38.710;2023-04-24T04:17:39;100104.75;;;10.43;40.23
74544;BME280;63016;55.030;38.710;2023-04-24T04:20:05;100122.09;;;10.69;39.69
74544;BME280;63016;55.030;38.710;2023-04-24T04:22:37;100117.53;;;10.87;39.94
74544;BME280;63016;55.030;38.710;2023-04-24T04:25:03;100112.66;;;11.09;39.71
74544;BME280;63016;55.030;38.710;2023-04-24T04:27:29;100128.00;;;11.28;40.12
74544;BME280;63016;55.030;38.710;2023-04-24T04:29:58;100116.22;;;11.48;39.90
74544;BME280;63016;55.030;38.710;2023-04-24T04:32:26;100128.75;;;11.69;39.51
74544;BME280;63016;55.030;38.710;2023-04-24T04:34:52;100135.13;;;11.91;40.09
74544;BME280;63016;55.030;38.710;2023-04-24T04:37:18;100126.56;;;12.14;40.30
74544;BME280;63016;55.030;38.710;2023-04-24T04:39:44;100141.47;;;12.36;39.98
74544;BME280;63016;55.030;38.710;2023-04-24T04:42:10;100131.25;;;12.57;39.84
74544;BME280;63016;55.030;38.710;2023-04-24T04:44:35;100118.84;;;12.74;39.94
74544;BME280;63016;55.030;38.710;2023-04-24T04:47:02;100135.16;;;13.07;39.67
74544;BME280;63016;55.030;38.710;2023-04-24T04:49:31;100144.13;;;13.36;39.72
74544;BME280;63016;55.030;38.710;2023-04-24T04:51:57;100134.41;;;13.59;39.46
74544;BME280;63016;55.030;38.710;2023-04-24T04:54:22;100129.53;;;13.86;39.52
74544;BME280;63016;55.030;38.710;2023-04-24T04:56:50;100137.09;;;14.10;39.10
74544;BME280;63016;55.030;38.710;2023-04-24T04:59:15;100135.84;;;14.36;39.36
74544;BME280;63016;55.030;38.710;2023-04-24T05:01:41;100135.34;;;14.62;39.32
74544;BME280;63016;55.030;38.710;2023-04-24T05:04:07;100136.41;;;14.89;39.31
74544;BME280;63016;55.030;38.710;2023-04-24T05:06:32;100136.41;;;14.89;39.31
74544;BME280;63016;55.030;38.710;2023-04-24T05:08:58;100131.19;;;15.38;39.06
74544;BME280;63016;55.030;38.710;2023-04-24T05:11:23;100134.22;;;15.63;39.13
74544;BME280;63016;55.030;38.710;2023-04-24T05:13:49;100130.94;;;15.89;38.70
74544;BME280;63016;55.030;38.710;2023-04-24T05:16:14;100139.16;;;16.14;38.71
74544;BME280;63016;55.030;38.710;2023-04-24T05:18:40;100136.84;;;16.39;38.85
74544;BME280;63016;55.030;38.710;2023-04-24T05:21:05;100131.44;;;16.61;38.42
74544;BME280;63016;55.030;38.710;2023-04-24T05:23:31;100136.16;;;16.92;38.53
74544;BME280;63016;55.030;38.710;2023-04-24T05:25:56;100136.00;;;17.20;38.31
74544;BME280;63016;55.030;38.710;2023-04-24T05:28:22;100131.94;;;17.44;38.26
74544;BME280;63016;55.030;38.710;2023-04-24T05:30:48;100136.78;;;17.73;38.41
74544;BME280;63016;55.030;38.710;2023-04-24T05:33:13;100130.47;;;17.94;38.01
74544;BME280;63016;55.030;38.710;2023-04-24T05:35:40;100141.31;;;18.24;37.77
74544;BME280;63016;55.030;38.710;2023-04-24T05:38:11;100138.75;;;18.49;37.89
74544;BME280;63016;55.030;38.710;2023-04-24T05:40:36;100134.19;;;18.77;37.48
74544;BME280;63016;55.030;38.710;2023-04-24T05:43:02;100137.50;;;18.97;37.32
74544;BME280;63016;55.030;38.710;2023-04-24T05:45:27;100137.34;;;19.17;36.64
74544;BME280;63016;55.030;38.710;2023-04-24T05:47:53;100126.44;;;19.32;36.75
74544;BME280;63016;55.030;38.710;2023-04-24T05:50:18;100136.13;;;19.63;36.76
74544;BME280;63016;55.030;38.710;2023-04-24T05:52:50;100135.50;;;19.86;36.56
74544;BME280;63016;55.030;38.710;2023-04-24T05:55:16;100138.16;;;20.04;36.17
74544;BME280;63016;55.030;38.710;2023-04-24T05:57:42;100133.88;;;20.21;35.84
74544;BME280;63016;55.030;38.710;2023-04-24T06:00:08;100129.94;;;20.42;36.05
74544;BME280;63016;55.030;38.710;2023-04-24T06:02:33;100126.47;;;20.60;36.12
74544;BME280;63016;55.030;38.710;2023-04-24T06:04:59;100130.56;;;20.86;35.98
74544;BME280;63016;55.030;38.710;2023-04-24T06:07:25;100135.56;;;-143.78;35.51
74544;BME280;63016;55.030;38.710;2023-04-24T06:09:53;100133.88;;;21.23;35.46
74544;BME280;63016;55.030;38.710;2023-04-24T06:12:19;100129.06;;;21.44;35.06
74544;BME280;63016;55.030;38.710;2023-04-24T06:14:45;100132.63;;;21.61;35.14
74544;BME280;63016;55.030;38.710;2023-04-24T06:17:10;100135.16;;;21.79;34.87
74544;BME280;63016;55.030;38.710;2023-04-24T06:19:36;100136.50;;;21.94;34.68
74544;BME280;63016;55.030;38.710;2023-04-24T06:22:01;100128.41;;;22.12;34.43
74544;BME280;63016;55.030;38.710;2023-04-24T06:24:28;100130.81;;;22.25;34.20
74544;BME280;63016;55.030;38.710;2023-04-24T06:26:53;100130.53;;;22.39;33.74
74544;BME280;63016;55.030;38.710;2023-04-24T06:29:19;100132.97;;;22.57;34.03
74544;BME280;63016;55.030;38.710;2023-04-24T06:31:45;100129.22;;;22.70;33.88
74544;BME280;63016;55.030;38.710;2023-04-24T06:34:10;100131.97;;;22.75;33.27
74544;BME280;63016;55.030;38.710;2023-04-24T06:36:36;100125.94;;;22.79;33.20
74544;BME280;63016;55.030;38.710;2023-04-24T06:39:01;100127.84;;;22.96;33.52
74544;BME280;63016;55.030;38.710;2023-04-24T06:41:28;100121.41;;;23.08;33.23
74544;BME280;63016;55.030;38.710;2023-04-24T06:43:54;100130.09;;;23.21;33.19
74544;BME280;63016;55.030;38.710;2023-04-24T06:46:20;100130.34;;;23.36;33.26
74544;BME280;63016;55.030;38.710;2023-04-24T06:48:49;100127.91;;;23.51;33.01
74544;BME280;63016;55.030;38.710;2023-04-24T06:51:14;100120.84;;;23.62;33.13
74544;BME280;63016;55.030;38.710;2023-04-24T06:53:40;100128.00;;;23.78;33.17
74544;BME280;63016;55.030;38.710;2023-04-24T06:56:05;100130.63;;;23.95;32.75
74544;BME280;63016;55.030;38.710;2023-04-24T06:58:31;100126.47;;;24.04;33.04
74544;BME280;63016;55.030;38.710;2023-04-24T07:00:56;100130.06;;;24.15;32.28
74544;BME280;63016;55.030;38.710;2023-04-24T07:03:22;100116.00;;;24.20;32.58
74544;BME280;63016;55.030;38.710;2023-04-24T07:05:48;100126.03;;;24.34;32.53
74544;BME280;63016;55.030;38.710;2023-04-24T07:08:14;100131.97;;;24.42;32.13
74544;BME280;63016;55.030;38.710;2023-04-24T07:10:42;100126.78;;;24.52;32.20
74544;BME280;63016;55.030;38.710;2023-04-24T07:13:08;100127.09;;;24.60;32.34
74544;BME280;63016;55.030;38.710;2023-04-24T07:15:33;100133.38;;;24.71;32.27
74544;BME280;63016;55.030;38.710;2023-04-24T07:17:59;100137.72;;;24.82;31.80
74544;BME280;63016;55.030;38.710;2023-04-24T07:20:25;100123.94;;;24.91;31.42
74544;BME280;63016;55.030;38.710;2023-04-24T07:22:51;100134.13;;;24.99;31.42
74544;BME280;63016;55.030;38.710;2023-04-24T07:25:17;100130.44;;;25.05;31.05
74544;BME280;63016;55.030;38.710;2023-04-24T07:27:42;100133.72;;;25.12;31.33
74544;BME280;63016;55.030;38.710;2023-04-24T07:30:08;100135.94;;;25.20;31.21
74544;BME280;63016;55.030;38.710;2023-04-24T07:32:34;100138.06;;;25.23;30.75
74544;BME280;63016;55.030;38.710;2023-04-24T07:35:00;100122.84;;;25.24;30.59
74544;BME280;63016;55.030;38.710;2023-04-24T07:37:25;100132.25;;;25.31;30.31
74544;BME280;63016;55.030;38.710;2023-04-24T07:39:51;100126.94;;;25.36;30.78
74544;BME280;63016;55.030;38.710;2023-04-24T07:42:16;100126.47;;;25.45;30.25
74544;BME280;63016;55.030;38.710;2023-04-24T07:44:42;100129.19;;;25.50;29.98
74544;BME280;63016;55.030;38.710;2023-04-24T07:47:08;100124.91;;;25.49;29.87
74544;BME280;63016;55.030;38.710;2023-04-24T07:49:33;100126.50;;;25.50;29.69
74544;BME280;63016;55.030;38.710;2023-04-24T07:52:00;100109.88;;;25.43;29.59
74544;BME280;63016;55.030;38.710;2023-04-24T07:54:27;100120.88;;;25.46;29.14
74544;BME280;63016;55.030;38.710;2023-04-24T07:56:53;100118.19;;;25.46;29.21
74544;BME280;63016;55.030;38.710;2023-04-24T07:59:19;100121.34;;;25.38;29.42
74544;BME280;63016;55.030;38.710;2023-04-24T08:01:45;100131.25;;;25.43;29.17
74544;BME280;63016;55.030;38.710;2023-04-24T08:04:10;100125.38;;;25.41;29.51
74544;BME280;63016;55.030;38.710;2023-04-24T08:06:36;100127.53;;;25.44;29.45
74544;BME280;63016;55.030;38.710;2023-04-24T08:09:01;100124.56;;;25.40;28.72
74544;BME280;63016;55.030;38.710;2023-04-24T08:11:28;100131.25;;;25.43;28.77
74544;BME280;63016;55.030;38.710;2023-04-24T08:17:16;100132.22;;;25.26;29.21
74544;BME280;63016;55.030;38.710;2023-04-24T08:19:42;100122.00;;;25.18;29.06
74544;BME280;63016;55.030;38.710;2023-04-24T08:22:12;100119.88;;;25.15;30.33
74544;BME280;63016;55.030;38.710;2023-04-24T08:24:38;100110.75;;;25.11;29.34
74544;BME280;63016;55.030;38.710;2023-04-24T08:27:04;100119.78;;;25.05;29.40
74544;BME280;63016;55.030;38.710;2023-04-24T08:29:29;100115.69;;;24.97;29.06
74544;BME280;63016;55.030;38.710;2023-04-24T08:31:55;100109.50;;;24.92;29.19
74544;BME280;63016;55.030;38.710;2023-04-24T08:34:26;100114.81;;;24.86;28.62
74544;BME280;63016;55.030;38.710;2023-04-24T08:39:36;100087.16;;;24.71;28.46
74544;BME280;63016;55.030;38.710;2023-04-24T08:42:02;100089.34;;;24.74;28.79
74544;BME280;63016;55.030;38.710;2023-04-24T08:44:34;100101.38;;;24.76;28.92
74544;BME280;63016;55.030;38.710;2023-04-24T08:47:04;100086.13;;;24.72;28.26
74544;BME280;63016;55.030;38.710;2023-04-24T08:49:30;100079.44;;;24.69;28.47
74544;BME280;63016;55.030;38.710;2023-04-24T08:51:56;100084.47;;;24.66;28.42
74544;BME280;63016;55.030;38.710;2023-04-24T08:54:22;100078.84;;;24.62;28.55
74544;BME280;63016;55.030;38.710;2023-04-24T08:56:48;100076.75;;;24.69;29.04
74544;BME280;63016;55.030;38.710;2023-04-24T08:59:33;100076.25;;;24.72;28.82
74544;BME280;63016;55.030;38.710;2023-04-24T09:02:01;100078.16;;;24.77;28.78
74544;BME280;63016;55.030;38.710;2023-04-24T09:04:29;100057.34;;;24.79;29.04
74544;BME280;63016;55.030;38.710;2023-04-24T09:07:14;100056.59;;;24.83;29.81
74544;BME280;63016;55.030;38.710;2023-04-24T09:09:42;100060.28;;;24.77;28.65
74544;BME280;63016;55.030;38.710;2023-04-24T09:12:07;100058.38;;;24.73;27.97
74544;BME280;63016;55.030;38.710;2023-04-24T09:14:35;100056.22;;;24.70;28.70
74544;BME280;63016;55.030;38.710;2023-04-24T09:17:03;100052.25;;;24.72;28.52
74544;BME280;63016;55.030;38.710;2023-04-24T09:19:29;100051.44;;;24.72;28.88
74544;BME280;63016;55.030;38.710;2023-04-24T09:21:54;100046.16;;;24.77;28.42
74544;BME280;63016;55.030;38.710;2023-04-24T09:24:21;100051.81;;;24.85;28.86
74544;BME280;63016;55.030;38.710;2023-04-24T09:26:59;100056.66;;;24.94;28.77
74544;BME280;63016;55.030;38.710;2023-04-24T09:29:27;100055.38;;;24.96;28.55
74544;BME280;63016;55.030;38.710;2023-04-24T09:31:52;100058.84;;;24.97;28.40
74544;BME280;63016;55.030;38.710;2023-04-24T09:34:26;100051.38;;;24.99;28.20
74544;BME280;63016;55.030;38.710;2023-04-24T09:36:52;100051.94;;;25.01;28.39
74544;BME280;63016;55.030;38.710;2023-04-24T09:39:18;100046.59;;;25.01;27.81
74544;BME280;63016;55.030;38.710;2023-04-24T09:41:48;100030.56;;;25.01;28.15
74544;BME280;63016;55.030;38.710;2023-04-24T09:44:22;100043.38;;;25.04;28.09
74544;BME280;63016;55.030;38.710;2023-04-24T09:46:55;100032.19;;;25.02;27.79
74544;BME280;63016;55.030;38.710;2023-04-24T09:49:31;100036.44;;;25.03;28.37
74544;BME280;63016;55.030;38.710;2023-04-24T09:52:09;100036.75;;;25.06;28.20
74544;BME280;63016;55.030;38.710;2023-04-24T09:54:36;100035.72;;;25.07;27.68
74544;BME280;63016;55.030;38.710;2023-04-24T09:57:04;100030.38;;;25.07;28.03
74544;BME280;63016;55.030;38.710;2023-04-24T09:59:30;100021.59;;;25.12;28.24
74544;BME280;63016;55.030;38.710;2023-04-24T10:01:56;100024.00;;;25.13;28.11
74544;BME280;63016;55.030;38.710;2023-04-24T10:04:25;100029.13;;;25.20;27.83
74544;BME280;63016;55.030;38.710;2023-04-24T10:06:53;100015.00;;;25.25;27.88
74544;BME280;63016;55.030;38.710;2023-04-24T10:09:22;100025.94;;;25.28;27.85
74544;BME280;63016;55.030;38.710;2023-04-24T10:11:50;100022.22;;;25.29;27.59
74544;BME280;63016;55.030;38.710;2023-04-24T10:14:18;100011.28;;;25.31;27.67
74544;BME280;63016;55.030;38.710;2023-04-24T10:16:44;100019.28;;;25.31;27.37
74544;BME280;63016;55.030;38.710;2023-04-24T10:19:12;100023.25;;;25.28;27.12
74544;BME280;63016;55.030;38.710;2023-04-24T10:21:39;100017.34;;;25.16;27.05
74544;BME280;63016;55.030;38.710;2023-04-24T10:24:08;100006.66;;;25.16;27.53
74544;BME280;63016;55.030;38.710;2023-04-24T10:26:34;100005.34;;;25.24;27.57
74544;BME280;63016;55.030;38.710;2023-04-24T10:29:00;100016.31;;;25.27;27.51
74544;BME280;63016;55.030;38.710;2023-04-24T10:31:27;100010.19;;;25.27;27.13
74544;BME280;63016;55.030;38.710;2023-04-24T10:33:56;100004.00;;;25.21;27.65
74544;BME280;63016;55.030;38.710;2023-04-24T10:36:24;100001.38;;;25.26;27.48
74544;BME280;63016;55.030;38.710;2023-04-24T10:38:52;100004.84;;;25.27;27.23
74544;BME280;63016;55.030;38.710;2023-04-24T10:41:20;100006.16;;;25.19;26.59
74544;BME280;63016;55.030;38.710;2023-04-24T10:43:48;100003.03;;;24.95;26.00
74544;BME280;63016;55.030;38.710;2023-04-24T10:46:30;100004.03;;;24.84;27.10
74544;BME280;63016;55.030;38.710;2023-04-24T10:48:56;99994.19;;;24.90;26.68
74544;BME280;63016;55.030;38.710;2023-04-24T10:51:23;99995.50;;;24.87;26.78
74544;BME280;63016;55.030;38.710;2023-04-24T10:53:52;99989.31;;;24.76;26.50
74544;BME280;63016;55.030;38.710;2023-04-24T10:56:17;99998.97;;;24.87;26.96
74544;BME280;63016;55.030;38.710;2023-04-24T10:58:45;99995.28;;;24.94;26.94
74544;BME280;63016;55.030;38.710;2023-04-24T11:01:38;100000.88;;;24.92;28.04
74544;BME280;63016;55.030;38.710;2023-04-24T11:04:03;99987.22;;;24.83;26.55
74544;BME280;63016;55.030;38.710;2023-04-24T11:06:36;99992.03;;;24.86;26.88
74544;BME280;63016;55.030;38.710;2023-04-24T11:09:06;99989.59;;;24.85;26.81
74544;BME280;63016;55.030;38.710;2023-04-24T11:11:33;99983.22;;;24.86;26.72
74544;BME280;63016;55.030;38.710;2023-04-24T11:16:53;99975.69;;;24.78;27.77
74544;BME280;63016;55.030;38.710;2023-04-24T11:19:29;99974.56;;;24.69;26.83
74544;BME280;63016;55.030;38.710;2023-04-24T11:22:02;99969.13;;;24.53;26.26
74544;BME280;63016;55.030;38.710;2023-04-24T11:29:41;99956.22;;;24.77;28.00
74544;BME280;63016;55.030;38.710;2023-04-24T11:32:18;99969.66;;;24.93;27.54
74544;BME280;63016;55.030;38.710;2023-04-24T11:34:49;99962.72;;;24.92;27.04
74544;BME280;63016;55.030;38.710;2023-04-24T11:37:15;99968.34;;;24.95;26.79
74544;BME280;63016;55.030;38.710;2023-04-24T11:39:41;99969.13;;;24.91;26.30
74544;BME280;63016;55.030;38.710;2023-04-24T11:42:07;99968.56;;;24.88;26.32
74544;BME280;63016;55.030;38.710;2023-04-24T11:44:34;99959.75;;;24.88;26.58
74544;BME280;63016;55.030;38.710;2023-04-24T11:47:04;99961.38;;;24.94;26.36
74544;BME280;63016;55.030;38.710;2023-04-24T11:49:29;99959.50;;;24.95;26.69
74544;BME280;63016;55.030;38.710;2023-04-24T11:51:55;99958.47;;;24.96;26.86
74544;BME280;63016;55.030;38.710;2023-04-24T11:54:21;99958.72;;;24.94;26.90
74544;BME280;63016;55.030;38.710;2023-04-24T11:56:47;99951.00;;;24.98;26.31
74544;BME280;63016;55.030;38.710;2023-04-24T11:59:14;99952.09;;;25.02;26.84
74544;BME280;63016;55.030;38.710;2023-04-24T12:01:45;99953.69;;;25.03;26.97
74544;BME280;63016;55.030;38.710;2023-04-24T12:04:12;99951.56;;;25.00;26.31
74544;BME280;63016;55.030;38.710;2023-04-24T12:06:37;99948.84;;;24.95;26.33
74544;BME280;63016;55.030;38.710;2023-04-24T12:09:03;99947.19;;;24.83;26.52
74544;BME280;63016;55.030;38.710;2023-04-24T12:11:29;99949.03;;;24.83;26.45
74544;BME280;63016;55.030;38.710;2023-04-24T12:13:55;99944.44;;;24.73;26.16
74544;BME280;63016;55.030;38.710;2023-04-24T12:16:20;99933.72;;;24.63;26.28
74544;BME280;63016;55.030;38.710;2023-04-24T12:18:46;99943.59;;;24.63;26.71
74544;BME280;63016;55.030;38.710;2023-04-24T12:21:22;99940.94;;;24.68;26.48
74544;BME280;63016;55.030;38.710;2023-04-24T12:23:48;99934.81;;;24.67;26.42
74544;BME280;63016;55.030;38.710;2023-04-24T12:26:18;99931.31;;;24.61;26.57
74544;BME280;63016;55.030;38.710;2023-04-24T12:28:47;99937.44;;;24.62;26.73
74544;BME280;63016;55.030;38.710;2023-04-24T12:31:13;99931.31;;;24.61;26.73
74544;BME280;63016;55.030;38.710;2023-04-24T12:33:39;99932.13;;;24.62;26.13
74544;BME280;63016;55.030;38.710;2023-04-24T12:36:04;99922.41;;;24.51;26.66
74544;BME280;63016;55.030;38.710;2023-04-24T12:38:32;99929.13;;;24.53;26.72
74544;BME280;63016;55.030;38.710;2023-04-24T12:43:32;99917.94;;;24.56;26.77
74544;BME280;63016;55.030;38.710;2023-04-24T12:45:58;99919.53;;;24.57;26.32
74544;BME280;63016;55.030;38.710;2023-04-24T12:48:25;99920.84;;;24.55;26.71
74544;BME280;63016;55.030;38.710;2023-04-24T12:50:51;99915.50;;;24.55;26.53
74544;BME280;63016;55.030;38.710;2023-04-24T12:53:16;99917.66;;;24.53;26.44
74544;BME280;63016;55.030;38.710;2023-04-24T12:55:42;99916.25;;;24.45;26.35
74544;BME280;63016;55.030;38.710;2023-04-24T12:58:08;99903.69;;;24.41;26.52
74544;BME280;63016;55.030;38.710;2023-04-24T13:00:33;99904.94;;;24.33;26.08